Ana Sayfa
METAR-TAF:

METAR-TAF

Havaalanları :

Kuveyt, Kuveyt

Enlem: 29-13N, Boylam: 047-59E, yükseklik: 55 m

Güncel hava durumu gözlemi

Rapor saat 19:00 UTC de 24 dakika önce yapıldı.
Rüzgar kuzey/kuzeybatıdan 16 kt
Sıcaklık 40°C
Nem 16%
Basınç 999 hPa
Görüş mesafesi 10 km veya daha fazla
1500 m altında bulut yok ve kümülonimbus yok

METAR: OKBK 251900Z 34016KT CAVOK 40/09 Q0999 NOSIG

Saat: 22:24 (19:24 UTC)

Tahmin

Rapor saat 16:45 UTC de 2 saat ve 39 dakika önce yapıldı.
Ayın 25'si saat 18 UTC'den ayın 26'si saat 24 UTC'ye kadar geçerli Tahmin
Rüzgar kuzeydan 108 kt ve 18 kt'a kadar ani rüzgarlar
Görüş mesafesi: 8000 m
Açık gökyüzü

TAF: OKBK 251645Z 2518/2624 350108G18KT 8000 SKC

4.000'den fazla havaalanı için hava durumu gözlemleri ve tahminleri (METAR ve TAF raporları).

Kullanılabilir istasyonlar harita üzerinde sarı ve kırmızı noktalarla gösterilir.

İstasyonun adını görmek için fareyi noktanın üzerinde gezdirin.

Sonrasında hava gözlem ve tahminlerini görmek için tıklayın.

Haritayı değiştirmek için: yaklaştırmak için siyah artı işaretli yeşil düğmeye ve uzaklaştırmak için de eksi işaretli düğmeye hızla tıklayın; bitişik haritalar için yeşil okları kullanın.


METAR-TAF: